ADDS METAR Data INFO
IDs: Format: Raw Decoded Include TAF

Data at: 1042 UTC 24 Apr 2018

METAR for:KLBX (Angleton/Texas Gulf, TX, US)
Text:KLBX 241038Z AUTO 01003KT 1 3/4SM BR CLR 13/12 A3003 RMK AO2 VIS 1V5 T01280122
Temperature: 12.8°C ( 55°F)
Dewpoint: 12.2°C ( 54°F) [RH = 96%]
Pressure (altimeter):30.03 inches Hg (1017.0 mb)
Winds:from the N (10 degrees) at 3 MPH (3 knots; 1.5 m/s)
Visibility: 1.75 sm ( 2.82 km)
Ceiling:at least 12,000 feet AGL
Clouds:sky clear below 12,000 feet AGL
Weather:BR (mist)
QC Flag:automated observation with no human augmentation

TAF for:KLBX (Angleton/Texas Gulf, TX, US) issued at 0522 UTC 24 Apr 2018
Text:KLBX 240522Z 2406/2506 00000KT P6SM SKC
Forecast period:0600 to 1600 UTC 24 April 2018
Forecast type:FROM: standard forecast or significant change
Winds:calm
Visibility:6 or more sm (10+ km)
Ceiling:at least 12,000 feet AGL
Clouds:clear skies
Text:FM241600 VRB05KT P6SM SCT250
Forecast period:1600 UTC 24 April 2018 to 0600 UTC 25 April 2018
Forecast type:FROM: standard forecast or significant change
Winds:variable direction winds at 6 MPH (5 knots; 2.6 m/s)
Visibility:6 or more sm (10+ km)
Ceiling:at least 12,000 feet AGL
Clouds: scattered clouds at 25000 feet AGL